Time;durP1;ratioP1;P1;durP2;ratioP2;P2;SDS_P1;SDS_P2;PMS_P1;PMS_P2;Temp;Humidity;BMP_temperature;BMP_pressure;BME280_temperature;BME280_humidity;BME280_pressure;Samples;Min_cycle;Max_cycle;Signal;HPM_P1;HPM_P2
2022/10/23 00:01:44;;;;;;;9.07;8.07;;;11.10;99.90;;;-141.84;100.00;15036.66;5111250;28;20223;-63
2022/10/23 00:04:15;;;;;;;9.43;8.23;;;11.10;99.90;;;-141.84;100.00;15022.47;5111551;28;20231;-63
2022/10/23 00:06:45;;;;;;;8.80;7.90;;;11.10;99.90;;;-141.84;100.00;15028.53;5111285;28;20230;-62
2022/10/23 00:09:20;;;;;;;9.57;8.17;;;11.00;99.90;;;-141.84;100.00;15073.22;5110919;28;20227;-62
2022/10/23 00:11:50;;;;;;;9.87;8.57;;;11.10;99.90;;;-141.84;100.00;15044.78;5111653;28;20287;-62
2022/10/23 00:14:21;;;;;;;8.83;7.87;;;11.10;99.90;;;-141.84;100.00;15056.97;5111838;28;20826;-62
2022/10/23 00:16:49;;;;;;;10.30;7.90;;;11.10;99.90;;;-141.84;100.00;15000.13;5111529;28;20208;-62
2022/10/23 00:19:17;;;;;;;9.13;7.63;;;11.20;99.90;;;-141.84;100.00;15032.59;5110993;28;20238;-64
2022/10/23 00:21:45;;;;;;;8.40;7.67;;;11.10;99.90;;;-141.84;100.00;15028.53;5111203;28;20268;-62
2022/10/23 00:24:13;;;;;;;9.17;7.80;;;11.20;99.90;;;-141.84;100.00;15014.34;5110636;28;20783;-63
2022/10/23 00:26:43;;;;;;;10.23;7.63;;;11.20;99.90;;;-141.84;100.00;15034.63;5111043;28;20222;-61
2022/10/23 00:29:11;;;;;;;8.23;7.43;;;11.20;99.90;;;-141.84;100.00;15004.19;5111247;28;20215;-63
2022/10/23 00:31:39;;;;;;;9.27;8.07;;;11.20;99.90;;;-141.84;100.00;15026.53;5110880;28;20227;-62
2022/10/23 00:34:07;;;;;;;13.20;8.10;;;11.20;99.90;;;-141.84;100.00;15002.16;5110821;28;20243;-61
2022/10/23 00:36:36;;;;;;;12.57;8.87;;;11.20;99.90;;;-141.84;100.00;15032.59;5110567;28;20651;-63
2022/10/23 00:39:05;;;;;;;9.23;8.33;;;11.30;99.90;;;-141.84;100.00;15000.13;5110953;28;20223;-61
2022/10/23 00:41:33;;;;;;;9.03;8.10;;;11.30;99.90;;;-141.84;100.00;15028.53;5111126;28;20199;-62
2022/10/23 00:44:09;;;;;;;10.67;8.00;;;11.30;99.90;;;-141.84;100.00;14994.03;5106904;28;20316;-64
2022/10/23 00:46:39;;;;;;;11.63;8.37;;;11.30;99.90;;;-141.84;100.00;15002.16;5103427;28;20230;-60
2022/10/23 00:49:09;;;;;;;8.30;7.43;;;11.20;99.90;;;-141.84;100.00;15004.19;5110781;28;20223;-61
2022/10/23 00:51:41;;;;;;;8.80;7.90;;;11.30;99.90;;;-141.84;100.00;14953.44;5110835;28;20227;-62
2022/10/23 00:54:12;;;;;;;8.97;8.00;;;11.30;99.90;;;-141.84;100.00;14939.22;5110252;28;20219;-62
2022/10/23 00:56:59;;;;;;;11.17;8.00;;;11.20;99.90;;;-141.84;100.00;14910.81;5110798;28;20230;-62
2022/10/23 00:59:30;;;;;;;8.80;7.77;;;11.20;99.90;;;-141.84;100.00;14939.22;5110827;28;20187;-64
2022/10/23 01:01:58;;;;;;;9.10;7.83;;;11.20;99.90;;;-141.84;100.00;14920.97;5111002;28;20567;-62
2022/10/23 01:04:28;;;;;;;10.43;7.93;;;11.20;99.90;;;-141.84;100.00;14937.22;5110682;28;20241;-62
2022/10/23 01:07:08;;;;;;;15.20;8.80;;;11.20;99.90;;;-141.84;100.00;14963.59;5110649;28;20224;-61
2022/10/23 01:09:45;;;;;;;9.07;8.17;;;11.30;99.90;;;-141.84;100.00;14933.16;5111371;28;20227;-62
2022/10/23 01:12:26;;;;;;;9.03;7.83;;;11.30;99.90;;;-141.84;100.00;14941.25;5114948;27;20218;-62
2022/10/23 01:15:14;;;;;;;10.77;8.17;;;11.30;99.90;;;-141.84;100.00;14939.22;5114622;28;20229;-62
2022/10/23 01:17:51;;;;;;;9.88;8.20;;;11.40;99.90;;;-141.84;100.00;14933.16;5115241;27;20240;-61
2022/10/23 01:20:39;;;;;;;10.50;8.97;;;11.40;99.90;;;-141.84;100.00;14908.78;5115208;28;20191;-62
2022/10/23 01:23:35;;;;;;;12.37;8.67;;;11.40;99.90;;;-141.84;100.00;14898.63;5114791;28;20204;-61
2022/10/23 01:26:26;;;;;;;11.37;8.60;;;11.60;99.90;;;-141.84;100.00;14910.81;5114435;28;20239;-63
2022/10/23 01:29:03;;;;;;;10.90;8.67;;;11.40;99.90;;;-141.84;100.00;14927.06;5114897;28;20279;-62
2022/10/23 01:31:39;;;;;;;9.87;8.50;;;11.30;99.90;;;-141.84;100.00;14904.72;5114232;28;20226;-64
2022/10/23 01:34:14;;;;;;;10.57;8.20;;;11.30;99.90;;;-141.84;100.00;14916.91;5114614;28;20230;-61
2022/10/23 01:36:49;;;;;;;12.53;8.87;;;11.30;99.90;;;-141.84;100.00;14923.00;5114289;28;20283;-62
2022/10/23 01:39:27;;;;;;;11.53;8.50;;;11.30;99.90;;;-141.84;100.00;14925.03;5114249;27;20222;-62
2022/10/23 01:42:03;;;;;;;9.73;8.70;;;11.30;99.90;;;-141.84;100.00;14916.91;5114205;28;20229;-63
2022/10/23 01:44:39;;;;;;;9.53;8.20;;;11.30;99.90;;;-141.84;100.00;14892.56;5113901;28;20667;-61
2022/10/23 01:47:10;;;;;;;11.63;8.90;;;11.30;99.90;;;-141.84;100.00;14864.13;5114960;28;20207;-61
2022/10/23 01:49:42;;;;;;;9.67;8.13;;;11.30;99.90;;;-141.84;100.00;14910.81;5113964;27;20262;-61
2022/10/23 01:52:15;;;;;;;9.90;8.17;;;11.30;99.90;;;-141.84;100.00;14910.81;5113836;27;20223;-62
2022/10/23 01:54:46;;;;;;;11.43;7.97;;;11.40;99.90;;;-141.84;100.00;14906.75;5113766;28;20231;-61
2022/10/23 01:57:20;;;;;;;11.07;8.30;;;11.40;99.90;;;-141.84;100.00;14876.31;5113723;28;20714;-59
2022/10/23 01:59:56;;;;;;;12.13;7.90;;;11.40;99.90;;;-141.84;100.00;14870.22;5113708;28;20225;-61
2022/10/23 02:02:27;;;;;;;9.63;7.70;;;11.40;99.90;;;-141.84;100.00;14918.94;5113905;28;20233;-61
2022/10/23 02:05:02;;;;;;;11.10;7.70;;;11.40;99.90;;;-141.84;100.00;14931.13;5113978;28;20189;-59
2022/10/23 02:07:31;;;;;;;9.53;7.60;;;11.50;99.90;;;-141.84;100.00;14874.28;5113230;28;20230;-60
2022/10/23 02:09:59;;;;;;;9.17;7.17;;;11.40;99.90;;;-141.84;100.00;14870.22;5113699;28;20227;-61
2022/10/23 02:12:40;;;;;;;9.23;7.80;;;11.40;99.90;;;-141.84;100.00;14896.59;5113548;28;20227;-60
2022/10/23 02:15:16;;;;;;;9.67;6.83;;;11.50;99.90;;;-141.84;100.00;14872.25;5113364;28;20598;-61
2022/10/23 02:17:58;;;;;;;8.77;7.20;;;11.40;99.90;;;-141.84;100.00;14896.59;5113545;28;20245;-61
2022/10/23 02:20:34;;;;;;;9.50;8.17;;;11.40;99.90;;;-141.84;100.00;14900.66;5112587;28;20198;-59
2022/10/23 02:23:15;;;;;;;8.10;6.53;;;11.40;99.90;;;-141.84;100.00;14864.13;5112528;28;20183;-61
2022/10/23 02:25:53;;;;;;;9.33;6.90;;;11.40;99.90;;;-141.84;100.00;14886.47;5113176;28;20597;-60
2022/10/23 02:28:31;;;;;;;9.77;7.20;;;11.40;99.90;;;-141.84;100.00;14882.41;5112934;28;20227;-60
2022/10/23 02:31:04;;;;;;;9.27;6.30;;;11.40;99.90;;;-141.84;100.00;14882.41;5113013;28;20268;-60
2022/10/23 02:33:35;;;;;;;10.67;7.13;;;11.40;99.90;;;-141.84;100.00;14918.94;5113191;28;20234;-59
2022/10/23 02:36:04;;;;;;;8.53;6.87;;;11.40;99.90;;;-141.84;100.00;14886.47;5112610;28;20241;-61
2022/10/23 02:38:39;;;;;;;8.65;6.30;;;11.50;99.90;;;-141.84;100.00;14941.25;5112885;28;20214;-60
2022/10/23 02:41:35;;;;;;;9.77;6.80;;;11.50;99.90;;;-141.84;100.00;14914.88;5113242;28;20695;-58
2022/10/23 02:44:23;;;;;;;7.67;6.33;;;11.60;99.90;;;-141.84;100.00;14910.81;5113250;28;20227;-61
2022/10/23 02:47:07;;;;;;;11.50;6.17;;;11.60;99.90;;;-141.84;100.00;14906.75;5113026;28;20218;-59
2022/10/23 02:49:44;;;;;;;7.93;5.87;;;11.60;99.90;;;-141.84;100.00;14878.34;5112823;28;20597;-60
2022/10/23 02:52:21;;;;;;;8.57;6.23;;;11.70;99.90;;;-141.84;100.00;14941.25;5112375;28;20226;-60
2022/10/23 02:55:17;;;;;;;9.50;6.67;;;11.70;99.90;;;-141.84;100.00;14878.34;5112690;28;20231;-60
2022/10/23 02:57:53;;;;;;;7.13;6.43;;;11.70;99.90;;;-141.84;100.00;14935.19;5112483;27;20569;-60
2022/10/23 03:00:22;;;;;;;7.43;6.38;;;11.70;99.90;;;-141.84;100.00;14914.88;5112006;28;20226;-59
2022/10/23 03:02:58;;;;;;;7.83;6.40;;;11.70;99.90;;;-141.84;100.00;14888.50;5112683;28;20231;-60
2022/10/23 03:05:32;;;;;;;8.27;5.97;;;11.80;99.90;;;-141.84;100.00;14882.41;5112384;28;20731;-59
2022/10/23 03:08:03;;;;;;;9.70;6.87;;;11.80;99.90;;;-141.84;100.00;14906.75;5112794;28;20256;-59
2022/10/23 03:10:31;;;;;;;8.80;6.50;;;11.70;99.90;;;-141.84;100.00;14923.00;5112286;28;20249;-62
2022/10/23 03:13:00;;;;;;;9.50;6.45;;;11.70;99.90;;;-141.84;100.00;14874.28;5112388;28;20492;-62
2022/10/23 03:15:28;;;;;;;7.37;6.20;;;11.70;99.90;;;-141.84;100.00;14853.97;5091862;28;20239;-61
2022/10/23 03:17:57;;;;;;;7.40;6.10;;;11.60;99.90;;;-141.84;100.00;14888.50;5091828;28;20228;-60
2022/10/23 03:20:25;;;;;;;10.57;6.40;;;11.50;99.90;;;-141.84;100.00;14878.34;5091474;28;20694;-61
2022/10/23 03:22:53;;;;;;;7.80;5.70;;;11.50;99.90;;;-141.84;100.00;14902.69;5091652;28;20207;-60
2022/10/23 03:25:21;;;;;;;6.33;5.73;;;11.40;99.90;;;-141.84;100.00;14849.94;5091167;28;20246;-59
2022/10/23 03:27:49;;;;;;;8.60;6.30;;;11.40;99.90;;;-141.84;100.00;14876.31;5091428;28;20224;-60
2022/10/23 03:30:17;;;;;;;6.03;5.05;;;11.30;99.90;;;-141.84;100.00;14829.63;5091471;28;20224;-60
2022/10/23 03:32:45;;;;;;;8.77;6.13;;;11.30;99.90;;;-141.84;100.00;14856.00;5091211;28;20231;-60
2022/10/23 03:35:15;;;;;;;6.50;5.53;;;11.30;99.90;;;-141.84;100.00;14829.63;5092045;28;20208;-60
2022/10/23 03:37:43;;;;;;;6.77;5.80;;;11.20;99.90;;;-141.84;100.00;14841.81;5091042;28;20228;-58
2022/10/23 03:40:12;;;;;;;6.20;5.60;;;11.10;99.90;;;-141.84;100.00;14841.81;5091512;28;20272;-59
2022/10/23 03:42:40;;;;;;;9.40;6.20;;;11.10;99.90;;;-141.84;100.00;14823.53;5091452;28;20223;-60
2022/10/23 03:45:09;;;;;;;6.57;5.37;;;11.10;99.90;;;-141.84;100.00;14815.41;5091319;28;20227;-60
2022/10/23 03:47:39;;;;;;;7.00;5.97;;;11.00;99.90;;;-141.84;100.00;14813.38;5090671;28;20223;-60
2022/10/23 03:50:09;;;;;;;8.60;5.87;;;11.10;99.90;;;-141.84;100.00;14817.44;5090670;28;20184;-60
2022/10/23 03:52:39;;;;;;;8.07;5.60;;;11.10;99.90;;;-141.84;100.00;14819.47;5090831;28;20236;-60
2022/10/23 03:55:09;;;;;;;5.50;4.90;;;11.10;99.90;;;-141.84;100.00;14797.16;5095985;28;20211;-59
2022/10/23 03:57:37;;;;;;;6.43;5.40;;;11.00;99.90;;;-141.84;100.00;14817.44;5111489;28;20234;-59
2022/10/23 04:00:07;;;;;;;5.93;5.33;;;11.00;99.90;;;-141.84;100.00;14811.34;5111080;28;20722;-59
2022/10/23 04:02:35;;;;;;;6.10;5.50;;;10.90;99.90;;;-141.84;100.00;14807.31;5111416;28;20187;-60
2022/10/23 04:05:04;;;;;;;9.20;5.77;;;11.00;99.90;;;-141.84;100.00;14711.91;5112204;28;20286;-60
2022/10/23 04:07:32;;;;;;;6.30;5.37;;;10.90;99.90;;;-141.84;100.00;14742.34;5110772;28;20258;-60
2022/10/23 04:10:02;;;;;;;5.87;5.17;;;10.90;99.90;;;-141.84;100.00;14720.03;5111168;28;20223;-59
2022/10/23 04:12:30;;;;;;;6.33;4.90;;;10.90;99.90;;;-141.84;100.00;14724.09;5111325;28;20223;-59
2022/10/23 04:14:58;;;;;;;6.33;5.73;;;10.90;99.90;;;-141.84;100.00;14705.81;5111102;28;20283;-60
2022/10/23 04:17:26;;;;;;;5.70;5.07;;;10.90;99.90;;;-141.84;100.00;14699.72;5111494;28;20212;-60
2022/10/23 04:19:55;;;;;;;6.10;5.10;;;10.90;99.90;;;-141.84;100.00;14693.63;5111422;28;20203;-60
2022/10/23 04:22:24;;;;;;;6.27;5.27;;;10.90;99.90;;;-141.84;100.00;14730.16;5110787;28;20227;-59
2022/10/23 04:24:55;;;;;;;8.53;5.57;;;10.80;99.90;;;-141.84;100.00;14718.00;5110904;28;20658;-60
2022/10/23 04:27:25;;;;;;;6.53;5.67;;;10.70;99.90;;;-141.84;100.00;14695.66;5111143;28;20231;-59
2022/10/23 04:29:53;;;;;;;6.63;5.60;;;10.70;99.90;;;-141.84;100.00;14691.59;5110591;27;20222;-60
2022/10/23 04:32:26;;;;;;;5.87;5.27;;;10.70;99.90;;;-141.84;100.00;14661.16;5111362;28;20211;-60
2022/10/23 04:34:54;;;;;;;7.53;5.77;;;10.70;99.90;;;-141.84;100.00;14657.09;5111489;27;20210;-60
2022/10/23 04:37:22;;;;;;;6.53;5.53;;;10.70;99.90;;;-141.84;100.00;14681.47;5110676;28;20653;-60
2022/10/23 04:39:50;;;;;;;8.33;5.50;;;10.60;99.90;;;-141.84;100.00;14679.44;5110748;28;20223;-59
2022/10/23 04:42:18;;;;;;;7.00;5.67;;;10.60;99.90;;;-141.84;100.00;14665.22;5110881;28;20223;-59
2022/10/23 04:44:47;;;;;;;6.27;5.63;;;10.60;99.90;;;-141.84;100.00;14661.16;5109728;28;20640;-62
2022/10/23 04:47:15;;;;;;;6.23;5.63;;;10.60;99.90;;;-141.84;100.00;14667.25;5111225;28;20200;-60
2022/10/23 04:49:43;;;;;;;7.33;6.07;;;10.60;99.90;;;-141.84;100.00;14677.41;5110468;28;20223;-60
2022/10/23 04:52:11;;;;;;;9.17;6.17;;;10.60;99.90;;;-141.84;100.00;14648.97;5110401;28;20223;-60
2022/10/23 04:54:40;;;;;;;6.60;5.90;;;10.70;99.90;;;-141.84;100.00;14687.53;5110593;28;20235;-60
2022/10/23 04:57:08;;;;;;;10.80;6.10;;;10.60;99.90;;;-141.84;100.00;14691.59;5109564;28;20637;-59
2022/10/23 04:59:36;;;;;;;8.07;6.03;;;10.70;99.90;;;-141.84;100.00;14628.69;5110512;28;20601;-60
2022/10/23 05:02:05;;;;;;;6.87;5.50;;;10.70;99.90;;;-141.84;100.00;14655.06;5110867;28;20203;-60
2022/10/23 05:04:33;;;;;;;6.87;5.73;;;10.70;99.90;;;-141.84;100.00;14638.84;5110200;28;20230;-59
2022/10/23 05:07:01;;;;;;;7.87;6.07;;;10.70;99.90;;;-141.84;100.00;14648.97;5110261;28;20725;-59
2022/10/23 05:09:29;;;;;;;10.10;5.60;;;10.70;99.90;;;-141.84;100.00;14624.63;5110407;28;20239;-60
2022/10/23 05:11:57;;;;;;;7.93;5.93;;;10.70;99.90;;;-141.84;100.00;14644.94;5110603;28;20246;-59
2022/10/23 05:14:25;;;;;;;6.80;6.00;;;10.70;99.90;;;-141.84;100.00;14610.41;5110652;28;20247;-59
2022/10/23 05:17:00;;;;;;;10.17;5.77;;;10.70;99.90;;;-141.84;100.00;14644.94;5110773;28;20553;-61
2022/10/23 05:19:36;;;;;;;8.00;5.90;;;10.70;99.90;;;-141.84;100.00;14669.28;5110238;28;20225;-60
2022/10/23 05:22:06;;;;;;;7.60;5.73;;;10.70;99.90;;;-141.84;100.00;14604.34;5109937;28;20223;-60
2022/10/23 05:24:34;;;;;;;11.67;6.67;;;10.70;99.90;;;-141.84;100.00;14665.22;5110355;28;20231;-60
2022/10/23 05:27:02;;;;;;;7.13;5.87;;;10.70;99.90;;;-141.84;100.00;14630.72;5110489;28;20219;-60
2022/10/23 05:29:30;;;;;;;7.40;6.10;;;10.70;99.90;;;-141.84;100.00;14651.00;5110003;28;20223;-58
2022/10/23 05:32:05;;;;;;;7.53;5.90;;;10.70;99.90;;;-141.84;100.00;14640.88;5110978;28;20198;-59
2022/10/23 05:34:38;;;;;;;7.87;5.83;;;10.70;99.90;;;-141.84;100.00;14651.00;5109890;28;20271;-60
2022/10/23 05:37:09;;;;;;;9.17;5.80;;;10.70;99.90;;;-141.84;100.00;14616.50;5109929;28;20303;-60
2022/10/23 05:39:37;;;;;;;6.90;5.53;;;10.70;99.90;;;-141.84;100.00;14644.94;5110032;28;20224;-60
2022/10/23 05:42:05;;;;;;;6.10;5.50;;;10.60;99.90;;;-141.84;100.00;14655.06;5110273;28;20249;-60
2022/10/23 05:44:34;;;;;;;7.23;5.90;;;10.60;99.90;;;-141.84;100.00;14653.03;5109887;28;20204;-60
2022/10/23 05:47:02;;;;;;;6.90;5.67;;;10.60;99.90;;;-141.84;100.00;14630.72;5110840;28;20210;-60
2022/10/23 05:49:30;;;;;;;7.30;5.57;;;10.60;99.90;;;-141.84;100.00;14622.59;5109655;28;20239;-60
2022/10/23 05:51:59;;;;;;;7.50;5.73;;;10.60;99.90;;;-141.84;100.00;14626.66;5109683;28;20238;-60
2022/10/23 05:54:27;;;;;;;6.37;5.70;;;10.60;99.90;;;-141.84;100.00;14628.69;5109834;28;20223;-59
2022/10/23 05:56:56;;;;;;;7.63;5.60;;;10.60;99.90;;;-141.84;100.00;14651.00;5113047;27;20243;-59
2022/10/23 05:59:24;;;;;;;10.50;6.10;;;10.60;99.90;;;-141.84;100.00;14624.63;5113614;28;20199;-60
2022/10/23 06:01:52;;;;;;;7.30;6.03;;;10.60;99.90;;;-141.84;100.00;14640.88;5114222;28;20252;-60
2022/10/23 06:04:21;;;;;;;8.83;6.33;;;10.60;99.90;;;-141.84;100.00;14646.94;5113607;28;20258;-60
2022/10/23 06:06:49;;;;;;;7.10;5.90;;;10.70;99.90;;;-141.84;100.00;14636.81;5113059;28;20238;-61
2022/10/23 06:09:18;;;;;;;8.07;6.37;;;10.70;99.90;;;-141.84;100.00;14646.94;5113359;28;20224;-60
2022/10/23 06:11:47;;;;;;;6.63;5.70;;;10.80;99.90;;;-141.84;100.00;14667.25;5113640;28;20280;-59
2022/10/23 06:14:15;;;;;;;9.47;5.87;;;10.90;99.90;;;-141.84;100.00;14663.19;5113901;28;20207;-59
2022/10/23 06:16:43;;;;;;;7.77;5.83;;;11.00;99.90;;;-141.84;100.00;14681.47;5113254;28;20231;-60
2022/10/23 06:19:12;;;;;;;7.53;5.70;;;11.10;99.90;;;-141.84;100.00;14659.13;5113516;28;20631;-59
2022/10/23 06:21:40;;;;;;;6.37;5.77;;;11.10;99.90;;;-141.84;100.00;14659.13;5112906;27;20235;-59
2022/10/23 06:24:09;;;;;;;7.37;6.00;;;11.20;99.90;;;-141.84;100.00;14624.63;5113602;28;20226;-61
2022/10/23 06:26:38;;;;;;;7.90;5.73;;;11.20;99.90;;;-141.84;100.00;14590.13;5113046;28;20210;-59
2022/10/23 06:29:06;;;;;;;8.93;5.33;;;11.30;99.90;;;-141.84;100.00;14638.84;5113816;28;20215;-60
2022/10/23 06:31:34;;;;;;;5.55;4.63;;;11.40;99.90;;;-141.84;100.00;14598.25;5113000;28;20219;-60
2022/10/23 06:34:02;;;;;;;5.87;4.90;;;11.40;99.90;;;-141.84;100.00;14616.50;5112401;28;20223;-60
2022/10/23 06:36:30;;;;;;;5.33;4.83;;;11.50;99.90;;;-141.84;100.00;14618.53;5112396;28;20238;-60
2022/10/23 06:38:58;;;;;;;6.70;5.23;;;11.60;99.90;;;-141.84;100.00;14636.81;5111918;28;20522;-60
2022/10/23 06:41:31;;;;;;;6.78;5.05;;;11.60;99.90;;;-141.84;100.00;14651.00;5111427;28;20190;-60
2022/10/23 06:44:01;;;;;;;7.63;5.45;;;11.70;99.90;;;-141.84;100.00;14661.16;5111457;28;20667;-59
2022/10/23 06:46:31;;;;;;;6.63;4.97;;;11.80;99.90;;;-141.84;100.00;14705.81;5112672;28;20234;-59
2022/10/23 06:48:59;;;;;;;6.50;4.57;;;11.80;99.90;;;-141.84;100.00;14675.38;5112665;28;20737;-59
2022/10/23 06:51:28;;;;;;;5.85;4.18;;;11.90;99.90;;;-141.84;100.00;14683.50;5112508;28;20225;-59
2022/10/23 06:53:57;;;;;;;8.40;4.57;;;12.00;99.90;;;-141.84;97.96;14797.16;5112772;28;20233;-61
2022/10/23 06:56:28;;;;;;;4.70;3.97;;;12.10;99.90;;;-141.84;97.96;14864.13;5112714;27;20207;-60
2022/10/23 06:58:56;;;;;;;5.97;4.20;;;12.20;99.90;;;-141.84;98.50;14870.22;5113364;28;20213;-59
2022/10/23 07:01:25;;;;;;;5.70;4.57;;;12.30;99.90;;;-141.84;98.76;14825.56;5112372;28;20223;-59
2022/10/23 07:03:53;;;;;;;4.60;4.20;;;12.40;99.90;;;-141.84;97.75;14900.66;5112406;28;20233;-60
2022/10/23 07:06:21;;;;;;;6.90;4.30;;;12.50;99.90;;;-141.84;96.80;14959.53;5112006;28;20242;-59
2022/10/23 07:08:49;;;;;;;4.07;3.60;;;12.50;99.90;;;-141.84;96.18;15038.69;5112044;27;20324;-60
2022/10/23 07:11:18;;;;;;;5.27;3.90;;;12.60;99.90;;;-141.84;96.18;15061.03;5113018;28;20264;-60
2022/10/23 07:13:46;;;;;;;4.07;3.55;;;12.70;99.90;;;-141.84;96.19;15111.78;5112087;28;20223;-59
2022/10/23 07:16:17;;;;;;;4.25;3.80;;;12.80;99.90;;;-141.84;96.08;15168.63;5112243;28;20230;-60
2022/10/23 07:18:57;;;;;;;6.65;4.53;;;12.90;99.90;;;-141.84;94.75;15229.50;5111968;28;20238;-59
2022/10/23 07:21:26;;;;;;;4.03;3.40;;;13.00;99.90;;;-141.84;93.17;15426.41;5111643;28;20234;-61
2022/10/23 07:23:53;;;;;;;7.10;3.70;;;13.10;99.90;;;-141.84;91.36;15611.16;5112091;28;20661;-60
2022/10/23 07:26:21;;;;;;;5.30;2.75;;;13.10;99.90;;;-141.84;87.92;15850.72;5112403;28;20706;-61
2022/10/23 07:28:53;;;;;;;4.05;3.03;;;13.20;99.90;;;-141.84;86.59;16165.44;5112228;28;20280;-59
2022/10/23 07:31:22;;;;;;;3.60;2.63;;;13.30;99.90;;;-141.84;85.88;16248.69;5111979;28;20663;-60
2022/10/23 07:33:56;;;;;;;4.20;3.08;;;13.40;99.90;;;-141.84;82.95;16486.25;5112044;28;20219;-60
2022/10/23 07:36:24;;;;;;;3.33;2.63;;;13.60;99.90;;;-141.84;84.16;16530.94;5111519;28;20598;-60
2022/10/23 07:38:52;;;;;;;3.80;2.80;;;13.70;99.90;;;-141.84;83.47;16636.53;5112123;28;20223;-59
2022/10/23 07:41:20;;;;;;;2.80;2.50;;;13.80;99.90;;;-141.84;84.07;16616.22;5112554;28;20203;-60
2022/10/23 07:43:48;;;;;;;3.58;2.70;;;13.90;99.90;;;-141.84;82.85;16652.78;5112065;28;20219;-62
2022/10/23 07:46:16;;;;;;;5.70;2.78;;;13.90;99.90;;;-141.84;78.61;16892.41;5111669;28;20235;-60
2022/10/23 07:48:44;;;;;;;3.53;2.40;;;13.90;99.90;;;-141.84;80.18;16863.97;5111491;28;20235;-60
2022/10/23 07:51:16;;;;;;;3.40;2.38;;;13.80;99.90;;;-141.84;79.40;16863.97;5111577;28;20261;-60
2022/10/23 07:53:44;;;;;;;4.75;2.53;;;13.80;99.90;;;-141.84;79.37;16914.75;5110531;28;20219;-60
2022/10/23 07:56:16;;;;;;;3.90;2.58;;;13.70;99.90;;;-141.84;80.87;16851.78;5111925;28;20522;-60
2022/10/23 07:58:44;;;;;;;3.70;2.60;;;13.50;99.90;;;-141.84;81.62;16819.28;5111338;27;20230;-59
2022/10/23 08:01:19;;;;;;;3.25;2.78;;;13.60;99.90;;;-141.84;82.74;16790.88;5110714;28;20222;-60
2022/10/23 08:03:47;;;;;;;3.33;2.65;;;13.60;99.90;;;-141.84;81.30;16849.75;5111498;28;20295;-61
2022/10/23 08:06:16;;;;;;;4.15;2.45;;;13.60;99.90;;;-141.84;81.13;16878.19;5111205;28;20643;-61
2022/10/23 08:08:44;;;;;;;4.47;2.60;;;13.70;99.90;;;-141.84;80.92;16908.66;5108167;28;20231;-62
2022/10/23 08:11:24;;;;;;;3.47;3.00;;;13.80;99.90;;;-141.84;80.16;16981.75;5112259;28;20226;-63
2022/10/23 08:13:53;;;;;;;3.97;2.70;;;14.00;99.90;;;-141.84;79.12;17002.06;5111435;28;20252;-62
2022/10/23 08:16:22;;;;;;;2.50;2.30;;;14.10;99.90;;;-141.84;78.14;17093.47;5110936;28;20219;-62
2022/10/23 08:18:51;;;;;;;3.55;2.80;;;14.20;99.90;;;-141.84;77.78;17158.44;5109556;28;20596;-63
2022/10/23 08:21:21;;;;;;;3.95;2.80;;;14.20;99.90;;;-141.84;77.49;17182.81;5111048;28;20219;-62
2022/10/23 08:23:49;;;;;;;5.75;3.00;;;14.30;99.90;;;-141.84;76.13;17294.53;5111030;28;20225;-64
2022/10/23 08:26:18;;;;;;;3.35;2.97;;;14.40;99.90;;;-141.84;74.82;17430.63;5102089;28;20219;-62
2022/10/23 08:28:46;;;;;;;3.20;2.42;;;14.50;99.90;;;-141.84;75.12;17465.13;5110662;28;20729;-61
2022/10/23 08:31:16;;;;;;;4.20;3.05;;;14.60;99.90;;;-141.84;75.36;17511.84;5110545;28;20303;-62
2022/10/23 08:33:45;;;;;;;4.00;3.08;;;14.70;99.90;;;-141.84;74.38;17556.53;5110849;28;20223;-62
2022/10/23 08:36:21;;;;;;;4.57;2.97;;;14.70;99.90;;;-141.84;74.61;17540.28;5110461;28;20219;-62
2022/10/23 08:38:52;;;;;;;3.05;2.70;;;14.80;99.90;;;-141.84;74.38;17603.25;5110530;28;20222;-62
2022/10/23 08:41:27;;;;;;;3.30;2.72;;;14.80;99.90;;;-141.84;73.88;17664.19;5111612;28;20191;-62
2022/10/23 08:44:04;;;;;;;2.97;2.67;;;14.90;99.90;;;-141.84;73.89;17674.34;5110757;28;20646;-63
2022/10/23 08:46:39;;;;;;;3.25;2.70;;;14.80;99.90;;;-141.84;73.33;17743.41;5110612;28;20253;-62
2022/10/23 08:49:30;;;;;;;3.38;2.70;;;15.00;99.90;;;-141.84;73.11;17765.75;5110707;28;20234;-64
2022/10/23 08:52:07;;;;;;;4.93;2.78;;;15.10;99.90;;;-141.84;72.46;17802.31;5110783;28;20235;-62
2022/10/23 08:54:54;;;;;;;3.47;2.50;;;15.30;99.90;;;-141.84;71.72;17924.22;5110705;28;20318;-62
2022/10/23 08:57:31;;;;;;;2.95;2.67;;;15.40;99.90;;;-141.84;71.88;17909.97;5110584;28;20772;-63
2022/10/23 09:00:04;;;;;;;2.90;2.60;;;15.50;99.90;;;-141.84;71.53;17966.88;5110750;28;20219;-62
2022/10/23 09:02:40;;;;;;;4.15;2.90;;;15.70;99.90;;;-141.84;70.60;18074.53;5111073;28;20548;-63
2022/10/23 09:05:21;;;;;;;3.35;2.72;;;15.80;99.90;;;-141.84;68.12;18220.78;5110949;28;20585;-62
2022/10/23 09:08:25;;;;;;;3.65;2.70;;;16.00;99.90;;;-141.84;68.28;18310.19;5110595;28;20220;-62
2022/10/23 09:11:07;;;;;;;5.22;2.70;;;16.20;99.90;;;-141.84;67.71;18397.53;5110810;28;20227;-63
2022/10/23 09:14:45;;;;;;;3.63;2.80;;;16.40;99.90;;;-141.84;65.88;18551.94;5110360;28;20245;-62
2022/10/23 09:17:24;;;;;;;3.05;2.60;;;16.60;99.90;;;-141.84;64.95;18712.47;5038066;28;20225;-62
2022/10/23 09:20:01;;;;;;;2.42;2.17;;;16.80;99.90;;;-141.84;64.76;18805.91;5108487;28;20230;-63
2022/10/23 09:22:29;;;;;;;4.15;2.47;;;16.90;99.90;;;-141.84;63.21;18946.13;5110141;28;20231;-62
2022/10/23 09:24:58;;;;;;;2.80;2.60;;;17.30;99.90;;;-141.84;63.50;18968.47;5110183;28;20233;-61
2022/10/23 09:27:26;;;;;;;3.60;2.33;;;17.30;99.90;;;-141.84;63.08;19063.97;5110306;28;20226;-62
2022/10/23 09:29:57;;;;;;;2.47;2.28;;;17.40;99.90;;;-141.84;62.67;19120.88;5110351;28;20226;-62
2022/10/23 09:32:38;;;;;;;3.70;2.40;;;17.50;99.90;;;-141.84;61.62;19226.53;5114273;28;20184;-62
2022/10/23 09:35:20;;;;;;;5.32;2.40;;;17.60;99.90;;;-141.84;61.45;19254.97;5115048;28;20204;-62
2022/10/23 09:37:51;;;;;;;3.80;2.45;;;17.60;99.90;;;-141.84;63.19;19206.22;5113917;28;20239;-61
2022/10/23 09:40:32;;;;;;;4.25;2.60;;;17.40;99.90;;;-141.84;63.19;19187.91;5114043;28;20243;-63
2022/10/23 09:43:04;;;;;;;3.15;2.20;;;17.30;99.90;;;-141.84;63.82;19198.09;5114026;28;20720;-62
2022/10/23 09:45:34;;;;;;;3.67;2.55;;;17.20;99.90;;;-141.84;64.29;19177.75;5114265;28;20486;-62
2022/10/23 09:48:13;;;;;;;2.95;2.00;;;17.10;99.90;;;-141.84;64.02;19189.97;5114311;28;20223;-60
2022/10/23 09:50:54;;;;;;;4.72;2.55;;;17.10;99.90;;;-141.84;63.42;19236.69;5113855;28;20298;-61
2022/10/23 09:53:33;;;;;;;4.03;2.30;;;17.20;99.90;;;-141.84;63.06;19299.69;5114278;28;20535;-60
2022/10/23 09:56:10;;;;;;;3.00;2.20;;;17.20;99.90;;;-141.84;61.01;19383.00;5114109;28;20195;-60
2022/10/23 09:58:53;;;;;;;2.90;2.55;;;17.30;99.90;;;-141.84;60.51;19437.88;5113459;28;20254;-59
2022/10/23 10:01:26;;;;;;;5.55;2.80;;;17.50;99.90;;;-141.84;60.85;19462.25;5113842;28;20580;-59
2022/10/23 10:03:55;;;;;;;7.00;2.60;;;17.50;99.90;;;-141.84;60.99;19462.25;5113730;27;20240;-60
2022/10/23 10:06:27;;;;;;;2.83;2.45;;;17.60;99.90;;;-141.84;61.45;19464.28;5113684;28;20239;-60
2022/10/23 10:08:58;;;;;;;2.60;2.40;;;17.50;99.90;;;-141.84;61.71;19450.06;5113280;28;20226;-60
2022/10/23 10:11:37;;;;;;;5.95;2.53;;;17.50;99.90;;;-141.84;62.53;19401.28;5113623;28;20260;-61
2022/10/23 10:14:40;;;;;;;4.22;2.50;;;17.30;99.90;;;-141.84;63.20;19411.44;5114102;28;20207;-61
2022/10/23 10:17:23;;;;;;;4.00;2.53;;;17.20;99.90;;;-141.84;63.44;19395.19;5113984;28;20223;-61
2022/10/23 10:20:23;;;;;;;4.80;2.70;;;17.10;99.90;;;-141.84;63.47;19417.56;5113110;28;20200;-59
2022/10/23 10:23:00;;;;;;;3.05;2.55;;;17.10;99.90;;;-141.84;63.37;19429.75;5113607;28;20266;-60